Terminal Aerodrome Forecast
Issued by NWS Lake Charles, LA

Home | Current Version | Previous Version | Text Only | Print | Product List | Glossary On
Versions: 1 2 3 4 5 6 7 8 9 10 11 12 13 14
000
FTUS44 KLCH 252329
TAFLFT
TAF
KLFT 252329Z 2600/2624 17004KT P6SM VCSH BKN040 BKN250
     FM260100 VRB03KT P6SM FEW050 SCT250
     FM261700 03005KT P6SM VCTS SCT050CB BKN250=

USA.gov is the U.S. government's official web portal to all federal, state and local government web resources and services.